Seaspan Queen — CFN6640 — position and weather

sailwx.info

Track history (hours):
 
Tides and Currents Weather Stations Pressure Air Temp Water Temp Dewpoint Dewpoint Depression Visibility Wind Speed Wind Dir Waves Ship Positions

Seaspan Queen

Last reported at 2018-Jul-22 18:55 UTC. Time now 2018-Jul-23 02:20 UTC.
Position N 49°09' W 123°21'.

Length 27 m; draft 3.5 m.

Type: Tug. MMSI: 316003678.

Date/timePositionNaut miles runAvg speedWind from/ knotsBaromVisibWave heightAir tempDewpointWater temp
2018-Jul-22 18:55N 49°09' W 123°21'13 1.2
2018-Jul-22 08:23N 49°19' W 123°08'2 4.0
2018-Jul-22 07:58N 49°19' W 123°06'0 0.6
2018-Jul-22 07:29N 49°19' W 123°06'0 0.0
2018-Jul-22 06:58N 49°19' W 123°06'0 0.0
2018-Jul-22 06:30N 49°19' W 123°06'0 0.0
2018-Jul-22 06:00N 49°19' W 123°06'0 0.0
2018-Jul-22 05:30N 49°19' W 123°06'0 0.0
2018-Jul-22 05:00N 49°19' W 123°06'0 0.0
2018-Jul-22 04:30N 49°19' W 123°06'0 0.0
2018-Jul-22 04:00N 49°19' W 123°06'0 0.0
2018-Jul-22 03:30N 49°19' W 123°06'0 0.0
2018-Jul-22 03:00N 49°19' W 123°06'0 0.0
2018-Jul-22 02:30N 49°19' W 123°06'0 0.0
2018-Jul-22 02:00N 49°19' W 123°06'0 0.0
2018-Jul-22 01:30N 49°19' W 123°06'0 0.0
2018-Jul-22 01:00N 49°19' W 123°06'0 0.0
2018-Jul-22 00:30N 49°19' W 123°06'0 0.0
2018-Jul-22 00:00N 49°19' W 123°06'0 0.0
2018-Jul-21 23:30N 49°19' W 123°06'0 0.0
2018-Jul-21 23:00N 49°19' W 123°06'1 1.3
2018-Jul-21 22:30N 49°18' W 123°06'2 3.1
2018-Jul-21 22:00N 49°18' W 123°03'1 0.9
2018-Jul-21 21:21N 49°18' W 123°04'2 4.6
2018-Jul-21 21:00N 49°17' W 123°06'1 2.4
2018-Jul-21 20:30N 49°19' W 123°06'0 0.8
2018-Jul-21 20:00N 49°18' W 123°06'1 1.2
2018-Jul-21 19:17N 49°17' W 123°07'0 0.0
2018-Jul-21 19:00N 49°17' W 123°07'0 0.0
2018-Jul-21 18:13N 49°17' W 123°07'0 0.0
2018-Jul-21 17:56N 49°17' W 123°07'0 0.0
2018-Jul-21 17:30N 49°17' W 123°07'0 0.0
2018-Jul-21 17:00N 49°17' W 123°07'0 0.2
2018-Jul-21 16:30N 49°17' W 123°07'1 1.9
2018-Jul-21 16:00N 49°18' W 123°06'0 0.7
2018-Jul-21 15:30N 49°19' W 123°06'0 0.0
2018-Jul-21 14:59N 49°19' W 123°06'0 0.0
2018-Jul-21 14:30N 49°19' W 123°06'0 0.0
2018-Jul-21 13:30N 49°19' W 123°06'0 0.0
2018-Jul-21 13:00N 49°19' W 123°06'0 0.0
2018-Jul-21 12:29N 49°19' W 123°06'0 0.0
2018-Jul-21 11:55N 49°19' W 123°06'0 0.0
2018-Jul-21 11:30N 49°19' W 123°06'0 0.2
2018-Jul-21 11:00N 49°19' W 123°06'1 1.2
2018-Jul-21 10:30N 49°18' W 123°07'12 4.9
2018-Jul-21 08:02N 49°09' W 123°19'9 2.6
2018-Jul-21 04:36N 49°07' W 123°06'10 5.7
2018-Jul-21 02:50N 49°13' W 123°18'4 9.8
2018-Jul-21 02:28N 49°17' W 123°17'510.2
2018-Jul-21 01:58N 49°19' W 123°10'3 5.5
2018-Jul-21 01:30N 49°19' W 123°06'0 0.0
2018-Jul-21 01:00N 49°19' W 123°06'0 0.0
2018-Jul-21 00:30N 49°19' W 123°06'0 0.0
2018-Jul-21 00:01N 49°19' W 123°06'0 0.0
2018-Jul-20 23:30N 49°19' W 123°06'0 0.0
2018-Jul-20 22:58N 49°19' W 123°06'0 0.0
2018-Jul-20 22:30N 49°19' W 123°06'0 0.1
2018-Jul-20 22:00N 49°19' W 123°06'1 2.1
2018-Jul-20 21:30N 49°18' W 123°07'0 0.0
2018-Jul-20 20:57N 49°18' W 123°07'0 0.0
2018-Jul-20 20:30N 49°18' W 123°07'0 0.0
2018-Jul-20 20:00N 49°18' W 123°07'0 0.0
2018-Jul-20 19:30N 49°18' W 123°07'0 0.2
2018-Jul-20 19:01N 49°18' W 123°07'1 2.2
2018-Jul-20 18:30N 49°19' W 123°06'3 5.6
2018-Jul-20 17:59N 49°18' W 123°10'2 3.3
2018-Jul-20 17:31N 49°19' W 123°09'2 3.1
2018-Jul-20 17:00N 49°19' W 123°06'0 0.0
2018-Jul-20 16:30N 49°19' W 123°06'2 4.8
2018-Jul-20 15:59N 49°17' W 123°10'0 0.8
2018-Jul-20 15:30N 49°17' W 123°09'0 0.4
2018-Jul-20 15:00N 49°17' W 123°09'1 2.8
2018-Jul-20 14:30N 49°19' W 123°10'3 5.3
2018-Jul-20 14:00N 49°18' W 123°06'0 0.6
2018-Jul-20 13:29N 49°19' W 123°06'0 0.0
2018-Jul-20 13:00N 49°19' W 123°06'0 0.0
2018-Jul-20 12:30N 49°19' W 123°06'0 0.0
2018-Jul-20 12:00N 49°19' W 123°06'1 1.9
2018-Jul-20 11:30N 49°19' W 123°08'4 7.6
2018-Jul-20 11:00N 49°19' W 123°14'6 7.2
2018-Jul-20 10:09N 49°13' W 123°18'2 8.0
2018-Jul-20 09:51N 49°11' W 123°19'3 7.9
2018-Jul-20 09:29N 49°08' W 123°19'15 6.6
2018-Jul-20 07:15N 49°09' W 122°57'1 1.1
2018-Jul-20 06:46N 49°09' W 122°58'1 2.0
2018-Jul-20 06:20N 49°09' W 122°59'2 6.1
2018-Jul-20 05:59N 49°09' W 123°02'3 6.3
2018-Jul-20 05:29N 49°07' W 123°06'6 5.6
2018-Jul-20 04:28N 49°08' W 123°14'37 5.2
2018-Jul-19 21:27N 49°28' W 124°01'3 6.1
2018-Jul-19 21:00N 49°30' W 124°04'5 6.0
2018-Jul-19 20:15N 49°33' W 124°08'6 6.0
2018-Jul-19 19:17N 49°38' W 124°14'2 5.8
2018-Jul-19 19:00N 49°39' W 124°16'3 6.0
2018-Jul-19 18:30N 49°41' W 124°19'3 6.2
2018-Jul-19 18:00N 49°43' W 124°22'3 6.4
2018-Jul-19 17:30N 49°45' W 124°27'3 6.4
2018-Jul-19 17:00N 49°47' W 124°31'3 6.0
2018-Jul-19 16:30N 49°49' W 124°33'3 5.0
2018-Jul-19 16:00N 49°52' W 124°34'0 0.5
2018-Jul-19 15:29N 49°52' W 124°34'1 1.2
2018-Jul-19 15:00N 49°52' W 124°33'3 3.4
2018-Jul-19 14:00N 49°48' W 124°32'2 3.0
2018-Jul-19 13:30N 49°47' W 124°31'2 3.3
2018-Jul-19 13:00N 49°46' W 124°28'2 4.3
2018-Jul-19 12:30N 49°45' W 124°25'3 5.8
2018-Jul-19 12:00N 49°44' W 124°22'3 5.7
2018-Jul-19 11:29N 49°42' W 124°18'3 5.7
2018-Jul-19 11:00N 49°40' W 124°16'7 6.1
2018-Jul-19 09:50N 49°34' W 124°09'39 6.0
2018-Jul-19 03:17N 49°09' W 123°23'3 5.7
2018-Jul-19 02:48N 49°07' W 123°19'1 2.2
2018-Jul-19 02:31N 49°07' W 123°19'10 5.7
2018-Jul-19 00:41N 49°08' W 123°03'4 8.5
2018-Jul-19 00:11N 49°09' W 122°57'2 8.8
2018-Jul-19 00:01N 49°10' W 122°55'1 1.0
2018-Jul-18 22:55N 49°12' W 122°55'1 2.2
2018-Jul-18 22:19N 49°10' W 122°55'0 0.1
2018-Jul-18 21:47N 49°10' W 122°55'2 2.9
2018-Jul-18 21:16N 49°09' W 122°58'2 3.9
2018-Jul-18 20:42N 49°09' W 123°01'1 5.6
2018-Jul-18 20:27N 49°09' W 123°03'4 5.8
2018-Jul-18 19:43N 49°06' W 123°09'4 5.3
2018-Jul-18 19:04N 49°08' W 123°14'2 5.0
2018-Jul-18 18:44N 49°07' W 123°16'1 4.1
2018-Jul-18 18:30N 49°07' W 123°17'1 2.7
2018-Jul-18 17:59N 49°07' W 123°19'4 7.5
2018-Jul-18 17:24N 49°11' W 123°18'32 4.6
2018-Jul-18 10:27N 49°28' W 124°01'3 7.4
2018-Jul-18 10:00N 49°30' W 124°05'4 7.2
2018-Jul-18 09:30N 49°33' W 124°09'5 7.9
2018-Jul-18 08:55N 49°36' W 124°13'3 8.3
2018-Jul-18 08:30N 49°39' W 124°17'4 8.4
2018-Jul-18 08:00N 49°42' W 124°20'4 7.8
2018-Jul-18 07:30N 49°45' W 124°25'4 7.8
2018-Jul-18 07:00N 49°47' W 124°30'4 7.0
2018-Jul-18 06:30N 49°50' W 124°33'3 5.2
2018-Jul-18 06:00N 49°52' W 124°34'0 0.3
2018-Jul-18 05:30N 49°52' W 124°34'2 4.2
2018-Jul-18 05:00N 49°50' W 124°33'3 6.6
2018-Jul-18 04:30N 49°47' W 124°30'3 6.5
2018-Jul-18 04:00N 49°46' W 124°26'3 6.6
2018-Jul-18 03:29N 49°44' W 124°22'3 6.6
2018-Jul-18 03:00N 49°42' W 124°18'3 6.3
2018-Jul-18 02:30N 49°39' W 124°15'46 6.2
2018-Jul-17 19:01N 49°08' W 123°23'0 5.0
2018-Jul-17 19:00N 49°08' W 123°22'12 6.2
2018-Jul-17 16:58N 49°08' W 123°03'4 6.8
2018-Jul-17 16:24N 49°09' W 122°58'0 0.4
2018-Jul-17 15:59N 49°09' W 122°57'0 0.6
2018-Jul-17 15:28N 49°10' W 122°57'1 2.1
2018-Jul-17 14:57N 49°10' W 122°56'2 3.6
2018-Jul-17 14:30N 49°12' W 122°54'1 2.0
2018-Jul-17 14:00N 49°11' W 122°55'2 3.4
2018-Jul-17 13:30N 49°10' W 122°57'2 3.5
2018-Jul-17 13:00N 49°09' W 122°59'2 3.0
2018-Jul-17 12:30N 49°09' W 123°02'2 3.5
2018-Jul-17 12:01N 49°08' W 123°04'2 3.5
2018-Jul-17 11:31N 49°07' W 123°06'2 3.3
2018-Jul-17 10:53N 49°07' W 123°09'1 2.5
2018-Jul-17 10:25N 49°07' W 123°11'1 2.6
2018-Jul-17 10:00N 49°07' W 123°12'1 2.7
2018-Jul-17 09:30N 49°08' W 123°14'1 2.8
2018-Jul-17 08:59N 49°07' W 123°16'2 3.9
2018-Jul-17 08:25N 49°06' W 123°19'3 6.6
2018-Jul-17 08:00N 49°09' W 123°19'3 6.2
2018-Jul-17 07:30N 49°12' W 123°18'3 5.1
2018-Jul-17 06:50N 49°16' W 123°19'29 5.2
2018-Jul-17 01:15N 49°27' W 123°59'2 5.4
2018-Jul-17 00:50N 49°29' W 124°02'2 5.5
2018-Jul-17 00:25N 49°30' W 124°05'6 5.8
2018-Jul-16 23:24N 49°35' W 124°11'4 6.1
2018-Jul-16 22:42N 49°38' W 124°15'1 6.1
2018-Jul-16 22:28N 49°39' W 124°16'3 5.9
2018-Jul-16 22:00N 49°41' W 124°19'3 6.0
2018-Jul-16 21:30N 49°43' W 124°22'3 5.8
2018-Jul-16 21:00N 49°45' W 124°26'3 5.8
2018-Jul-16 20:30N 49°47' W 124°30'3 6.0
2018-Jul-16 20:00N 49°49' W 124°33'3 5.9
2018-Jul-16 19:30N 49°52' W 124°34'1 1.2
2018-Jul-16 19:00N 49°52' W 124°34'0 0.3
2018-Jul-16 18:30N 49°52' W 124°34'0 0.1
2018-Jul-16 18:00N 49°52' W 124°34'0 0.2
2018-Jul-16 17:30N 49°52' W 124°34'1 1.0
2018-Jul-16 17:00N 49°52' W 124°34'2 3.4
2018-Jul-16 16:30N 49°51' W 124°33'3 5.9
2018-Jul-16 16:00N 49°48' W 124°32'3 5.5
2018-Jul-16 15:30N 49°46' W 124°28'3 5.1
2018-Jul-16 15:00N 49°45' W 124°24'3 5.3
2018-Jul-16 14:30N 49°44' W 124°21'3 5.4
2018-Jul-16 13:58N 49°42' W 124°18'3 5.2
2018-Jul-16 13:29N 49°39' W 124°16'3 5.3
2018-Jul-16 12:57N 49°37' W 124°13'3 5.3
2018-Jul-16 12:20N 49°35' W 124°09'2 5.2
2018-Jul-16 11:56N 49°33' W 124°08'2 5.0
2018-Jul-16 11:30N 49°31' W 124°06'3 5.3
2018-Jul-16 10:56N 49°29' W 124°03'31 4.8
2018-Jul-16 04:32N 49°10' W 123°26'0 2.3
2018-Jul-16 04:30N 49°10' W 123°26'2 4.4
2018-Jul-16 03:59N 49°08' W 123°23'3 3.5
2018-Jul-16 03:01N 49°07' W 123°19'0 2.2
2018-Jul-16 02:59N 49°07' W 123°19'0 0.3
2018-Jul-16 02:30N 49°07' W 123°19'1 1.3
2018-Jul-16 02:00N 49°07' W 123°19'1 1.4
2018-Jul-16 01:30N 49°07' W 123°19'14 5.4
2018-Jul-15 22:53N 49°09' W 122°58'0 0.4
2018-Jul-15 22:30N 49°09' W 122°57'0 0.7
2018-Jul-15 21:53N 49°10' W 122°57'0 0.0
2018-Jul-15 21:30N 49°10' W 122°57'0 0.0
2018-Jul-15 21:00N 49°10' W 122°57'0 0.0
2018-Jul-15 20:30N 49°10' W 122°57'0 0.0
2018-Jul-15 19:57N 49°10' W 122°57'0 0.0
2018-Jul-15 19:29N 49°10' W 122°57'0 0.0
2018-Jul-15 19:00N 49°10' W 122°57'0 0.0
2018-Jul-15 18:30N 49°10' W 122°57'0 0.1
2018-Jul-15 17:57N 49°10' W 122°57'0 0.1
2018-Jul-15 17:30N 49°10' W 122°57'0 0.0
2018-Jul-15 16:57N 49°10' W 122°57'0 0.0
2018-Jul-15 16:27N 49°10' W 122°57'0 0.0
2018-Jul-15 16:00N 49°10' W 122°57'0 0.0
2018-Jul-15 15:29N 49°10' W 122°57'0 0.0
2018-Jul-15 14:59N 49°10' W 122°57'0 0.0
2018-Jul-15 14:23N 49°10' W 122°57'0 0.0
2018-Jul-15 14:00N 49°10' W 122°57'0 0.0
2018-Jul-15 13:30N 49°10' W 122°57'0 0.0
2018-Jul-15 13:00N 49°10' W 122°57'0 0.0
2018-Jul-15 12:30N 49°10' W 122°57'0 0.0
2018-Jul-15 11:59N 49°10' W 122°57'0 0.0
2018-Jul-15 11:30N 49°10' W 122°57'0 0.0
2018-Jul-15 11:00N 49°10' W 122°57'0 0.0
2018-Jul-15 10:28N 49°10' W 122°57'0 0.0
2018-Jul-15 09:59N 49°10' W 122°57'0 0.0
2018-Jul-15 09:30N 49°10' W 122°57'0 0.0
2018-Jul-15 08:54N 49°10' W 122°57'0 0.0
2018-Jul-15 08:28N 49°10' W 122°57'0 0.0
2018-Jul-15 07:57N 49°10' W 122°57'0 0.0
2018-Jul-15 07:30N 49°10' W 122°57'0 0.0
2018-Jul-15 06:46N 49°10' W 122°57'0 0.0
2018-Jul-15 06:30N 49°10' W 122°57'0 0.0
2018-Jul-15 05:47N 49°10' W 122°57'0 0.7
2018-Jul-15 05:27N 49°10' W 122°57'1 2.0
2018-Jul-15 05:00N 49°09' W 122°58'1 2.5
2018-Jul-15 04:30N 49°09' W 122°60'3 5.2
2018-Jul-15 04:00N 49°08' W 123°03'4 8.0
2018-Jul-15 03:31N 49°06' W 123°09'4 7.8
2018-Jul-15 02:59N 49°08' W 123°15'4 7.7
2018-Jul-15 02:28N 49°06' W 123°20'4 8.1
2018-Jul-15 02:00N 49°04' W 123°25'4 8.1
2018-Jul-15 01:29N 49°02' W 123°31'4 7.3
2018-Jul-15 00:58N 49°00' W 123°36'2 4.3
2018-Jul-15 00:26N 49°01' W 123°39'2 3.9
2018-Jul-14 23:59N 49°02' W 123°41'2 3.3
2018-Jul-14 23:20N 49°01' W 123°38'2 3.7
2018-Jul-14 22:52N 48°60' W 123°37'2 4.6
2018-Jul-14 22:24N 48°58' W 123°37'2 4.1
2018-Jul-14 22:00N 48°56' W 123°37'2 4.7
2018-Jul-14 21:30N 48°54' W 123°37'2 2.8
2018-Jul-14 20:59N 48°52' W 123°38'0 0.7
2018-Jul-14 20:31N 48°52' W 123°38'0 0.7
2018-Jul-14 20:00N 48°52' W 123°38'2 4.7
2018-Jul-14 19:30N 48°55' W 123°37'3 6.0
2018-Jul-14 18:56N 48°58' W 123°37'3 6.8
2018-Jul-14 18:29N 49°01' W 123°35'2 4.0
2018-Jul-14 17:58N 49°03' W 123°34'1 1.0
2018-Jul-14 17:18N 49°03' W 123°35'1 1.5
2018-Jul-14 16:49N 49°03' W 123°34'0 1.4
2018-Jul-14 16:30N 49°02' W 123°34'1 1.3
2018-Jul-14 15:52N 49°02' W 123°32'1 2.0
2018-Jul-14 15:21N 49°03' W 123°31'1 3.2
2018-Jul-14 14:57N 49°03' W 123°29'2 2.4
2018-Jul-14 14:19N 49°03' W 123°27'9 4.4
2018-Jul-14 12:14N 49°08' W 123°14'1 5.8
2018-Jul-14 11:59N 49°08' W 123°12'3 6.7
2018-Jul-14 11:30N 49°07' W 123°08'3 6.4
2018-Jul-14 11:00N 49°08' W 123°03'3 6.6
2018-Jul-14 10:29N 49°09' W 122°58'1 1.6
2018-Jul-14 10:00N 49°09' W 122°57'0 0.3
2018-Jul-14 09:30N 49°09' W 122°57'0 0.1
2018-Jul-14 09:00N 49°09' W 122°58'1 1.2
2018-Jul-14 08:31N 49°09' W 122°58'2 4.0
2018-Jul-14 08:00N 49°09' W 123°02'2 4.5
2018-Jul-14 07:29N 49°08' W 123°04'2 4.4
2018-Jul-14 07:00N 49°07' W 123°07'2 3.8
2018-Jul-14 06:29N 49°07' W 123°10'1 2.7
2018-Jul-14 05:58N 49°07' W 123°12'2 4.1
2018-Jul-14 05:28N 49°07' W 123°15'3 5.3
2018-Jul-14 04:55N 49°06' W 123°19'3 6.5
2018-Jul-14 04:30N 49°08' W 123°21'3 6.4
2018-Jul-14 04:00N 49°12' W 123°21'3 6.0
2018-Jul-14 03:30N 49°15' W 123°21'3 6.2
2018-Jul-14 03:00N 49°18' W 123°20'3 6.3
2018-Jul-14 02:28N 49°21' W 123°20'0 0.3
2018-Jul-14 01:59N 49°21' W 123°20'25 5.6
2018-Jul-13 21:31N 49°26' W 123°58'3 6.4
2018-Jul-13 21:05N 49°28' W 124°02'1 6.8
2018-Jul-13 20:58N 49°28' W 124°03'3 6.7
2018-Jul-13 20:30N 49°30' W 124°06'4 7.1
2018-Jul-13 20:00N 49°34' W 124°08'5 7.6
2018-Jul-13 19:21N 49°37' W 124°13'3 7.5
2018-Jul-13 18:59N 49°39' W 124°16'3 6.9
2018-Jul-13 18:31N 49°42' W 124°19'4 7.2
2018-Jul-13 18:00N 49°44' W 124°24'3 7.0
2018-Jul-13 17:30N 49°46' W 124°28'3 6.9
2018-Jul-13 17:00N 49°48' W 124°33'3 6.6
2018-Jul-13 16:30N 49°51' W 124°34'1 1.9
2018-Jul-13 16:01N 49°52' W 124°34'0 0.1
2018-Jul-13 15:30N 49°52' W 124°34'0 0.2
2018-Jul-13 15:00N 49°52' W 124°34'2 3.1
2018-Jul-13 14:30N 49°51' W 124°33'5 5.1
2018-Jul-13 13:30N 49°46' W 124°29'3 5.7
2018-Jul-13 13:00N 49°45' W 124°25'3 5.2
2018-Jul-13 12:29N 49°44' W 124°21'3 5.0
2018-Jul-13 11:59N 49°42' W 124°19'3 6.1
2018-Jul-13 11:30N 49°39' W 124°16'3 5.6
2018-Jul-13 10:53N 49°37' W 124°12'2 5.3
2018-Jul-13 10:28N 49°35' W 124°10'3 5.5
2018-Jul-13 09:59N 49°33' W 124°07'3 5.4
2018-Jul-13 09:30N 49°31' W 124°05'3 5.8
2018-Jul-13 09:00N 49°29' W 124°02'29 5.4
2018-Jul-13 03:40N 49°11' W 123°28'2 4.9
2018-Jul-13 03:15N 49°09' W 123°25'2 5.2
2018-Jul-13 02:50N 49°08' W 123°23'12 5.2
2018-Jul-13 00:28N 49°08' W 123°04'5 2.3
2018-Jul-12 22:25N 49°09' W 122°57'2 4.4
2018-Jul-12 21:54N 49°09' W 123°01'2 6.1
2018-Jul-12 21:30N 49°08' W 123°04'4 6.0
2018-Jul-12 20:52N 49°07' W 123°09'2 6.1
2018-Jul-12 20:29N 49°08' W 123°13'3 5.8
2018-Jul-12 19:56N 49°07' W 123°17'  
Track history (hours):
 
Tides and Currents Weather Stations Pressure Air Temp Water Temp Dewpoint Dewpoint Depression Visibility Wind Speed Wind Dir Waves Ship Positions

Seaspan Queen

Last reported at 2018-Jul-22 18:55 UTC. Time now 2018-Jul-23 02:20 UTC.
Position N 49°09' W 123°21'.

Length 27 m; draft 3.5 m.

Type: Tug. MMSI: 316003678.

Date/timePositionNaut miles runAvg speedWind from/ knotsBaromVisibWave heightAir tempDewpointWater temp
2018-Jul-22 18:55N 49°09' W 123°21'13 1.2
2018-Jul-22 08:23N 49°19' W 123°08'2 4.0
2018-Jul-22 07:58N 49°19' W 123°06'0 0.6
2018-Jul-22 07:29N 49°19' W 123°06'0 0.0
2018-Jul-22 06:58N 49°19' W 123°06'0 0.0
2018-Jul-22 06:30N 49°19' W 123°06'0 0.0
2018-Jul-22 06:00N 49°19' W 123°06'0 0.0
2018-Jul-22 05:30N 49°19' W 123°06'0 0.0
2018-Jul-22 05:00N 49°19' W 123°06'0 0.0
2018-Jul-22 04:30N 49°19' W 123°06'0 0.0
2018-Jul-22 04:00N 49°19' W 123°06'0 0.0
2018-Jul-22 03:30N 49°19' W 123°06'0 0.0
2018-Jul-22 03:00N 49°19' W 123°06'0 0.0
2018-Jul-22 02:30N 49°19' W 123°06'0 0.0
2018-Jul-22 02:00N 49°19' W 123°06'0 0.0
2018-Jul-22 01:30N 49°19' W 123°06'0 0.0
2018-Jul-22 01:00N 49°19' W 123°06'0 0.0
2018-Jul-22 00:30N 49°19' W 123°06'0 0.0
2018-Jul-22 00:00N 49°19' W 123°06'0 0.0
2018-Jul-21 23:30N 49°19' W 123°06'0 0.0
2018-Jul-21 23:00N 49°19' W 123°06'1 1.3
2018-Jul-21 22:30N 49°18' W 123°06'2 3.1
2018-Jul-21 22:00N 49°18' W 123°03'1 0.9
2018-Jul-21 21:21N 49°18' W 123°04'2 4.6
2018-Jul-21 21:00N 49°17' W 123°06'1 2.4
2018-Jul-21 20:30N 49°19' W 123°06'0 0.8
2018-Jul-21 20:00N 49°18' W 123°06'1 1.2
2018-Jul-21 19:17N 49°17' W 123°07'0 0.0
2018-Jul-21 19:00N 49°17' W 123°07'0 0.0
2018-Jul-21 18:13N 49°17' W 123°07'0 0.0
2018-Jul-21 17:56N 49°17' W 123°07'0 0.0
2018-Jul-21 17:30N 49°17' W 123°07'0 0.0
2018-Jul-21 17:00N 49°17' W 123°07'0 0.2
2018-Jul-21 16:30N 49°17' W 123°07'1 1.9
2018-Jul-21 16:00N 49°18' W 123°06'0 0.7
2018-Jul-21 15:30N 49°19' W 123°06'0 0.0
2018-Jul-21 14:59N 49°19' W 123°06'0 0.0
2018-Jul-21 14:30N 49°19' W 123°06'0 0.0
2018-Jul-21 13:30N 49°19' W 123°06'0 0.0
2018-Jul-21 13:00N 49°19' W 123°06'0 0.0
2018-Jul-21 12:29N 49°19' W 123°06'0 0.0
2018-Jul-21 11:55N 49°19' W 123°06'0 0.0
2018-Jul-21 11:30N 49°19' W 123°06'0 0.2
2018-Jul-21 11:00N 49°19' W 123°06'1 1.2
2018-Jul-21 10:30N 49°18' W 123°07'12 4.9
2018-Jul-21 08:02N 49°09' W 123°19'9 2.6
2018-Jul-21 04:36N 49°07' W 123°06'10 5.7
2018-Jul-21 02:50N 49°13' W 123°18'4 9.8
2018-Jul-21 02:28N 49°17' W 123°17'510.2
2018-Jul-21 01:58N 49°19' W 123°10'3 5.5
2018-Jul-21 01:30N 49°19' W 123°06'0 0.0
2018-Jul-21 01:00N 49°19' W 123°06'0 0.0
2018-Jul-21 00:30N 49°19' W 123°06'0 0.0
2018-Jul-21 00:01N 49°19' W 123°06'0 0.0
2018-Jul-20 23:30N 49°19' W 123°06'0 0.0
2018-Jul-20 22:58N 49°19' W 123°06'0 0.0
2018-Jul-20 22:30N 49°19' W 123°06'0 0.1
2018-Jul-20 22:00N 49°19' W 123°06'1 2.1
2018-Jul-20 21:30N 49°18' W 123°07'0 0.0
2018-Jul-20 20:57N 49°18' W 123°07'0 0.0
2018-Jul-20 20:30N 49°18' W 123°07'0 0.0
2018-Jul-20 20:00N 49°18' W 123°07'0 0.0
2018-Jul-20 19:30N 49°18' W 123°07'0 0.2
2018-Jul-20 19:01N 49°18' W 123°07'1 2.2
2018-Jul-20 18:30N 49°19' W 123°06'3 5.6
2018-Jul-20 17:59N 49°18' W 123°10'2 3.3
2018-Jul-20 17:31N 49°19' W 123°09'2 3.1
2018-Jul-20 17:00N 49°19' W 123°06'0 0.0
2018-Jul-20 16:30N 49°19' W 123°06'2 4.8
2018-Jul-20 15:59N 49°17' W 123°10'0 0.8
2018-Jul-20 15:30N 49°17' W 123°09'0 0.4
2018-Jul-20 15:00N 49°17' W 123°09'1 2.8
2018-Jul-20 14:30N 49°19' W 123°10'3 5.3
2018-Jul-20 14:00N 49°18' W 123°06'0 0.6
2018-Jul-20 13:29N 49°19' W 123°06'0 0.0
2018-Jul-20 13:00N 49°19' W 123°06'0 0.0
2018-Jul-20 12:30N 49°19' W 123°06'0 0.0
2018-Jul-20 12:00N 49°19' W 123°06'1 1.9
2018-Jul-20 11:30N 49°19' W 123°08'4 7.6
2018-Jul-20 11:00N 49°19' W 123°14'6 7.2
2018-Jul-20 10:09N 49°13' W 123°18'2 8.0
2018-Jul-20 09:51N 49°11' W 123°19'3 7.9
2018-Jul-20 09:29N 49°08' W 123°19'15 6.6
2018-Jul-20 07:15N 49°09' W 122°57'1 1.1
2018-Jul-20 06:46N 49°09' W 122°58'1 2.0
2018-Jul-20 06:20N 49°09' W 122°59'2 6.1
2018-Jul-20 05:59N 49°09' W 123°02'3 6.3
2018-Jul-20 05:29N 49°07' W 123°06'6 5.6
2018-Jul-20 04:28N 49°08' W 123°14'37 5.2
2018-Jul-19 21:27N 49°28' W 124°01'3 6.1
2018-Jul-19 21:00N 49°30' W 124°04'5 6.0
2018-Jul-19 20:15N 49°33' W 124°08'6 6.0
2018-Jul-19 19:17N 49°38' W 124°14'2 5.8
2018-Jul-19 19:00N 49°39' W 124°16'3 6.0
2018-Jul-19 18:30N 49°41' W 124°19'3 6.2
2018-Jul-19 18:00N 49°43' W 124°22'3 6.4
2018-Jul-19 17:30N 49°45' W 124°27'3 6.4
2018-Jul-19 17:00N 49°47' W 124°31'3 6.0
2018-Jul-19 16:30N 49°49' W 124°33'3 5.0
2018-Jul-19 16:00N 49°52' W 124°34'0 0.5
2018-Jul-19 15:29N 49°52' W 124°34'1 1.2
2018-Jul-19 15:00N 49°52' W 124°33'3 3.4
2018-Jul-19 14:00N 49°48' W 124°32'2 3.0
2018-Jul-19 13:30N 49°47' W 124°31'2 3.3
2018-Jul-19 13:00N 49°46' W 124°28'2 4.3
2018-Jul-19 12:30N 49°45' W 124°25'3 5.8
2018-Jul-19 12:00N 49°44' W 124°22'3 5.7
2018-Jul-19 11:29N 49°42' W 124°18'3 5.7
2018-Jul-19 11:00N 49°40' W 124°16'7 6.1
2018-Jul-19 09:50N 49°34' W 124°09'39 6.0
2018-Jul-19 03:17N 49°09' W 123°23'3 5.7
2018-Jul-19 02:48N 49°07' W 123°19'1 2.2
2018-Jul-19 02:31N 49°07' W 123°19'10 5.7
2018-Jul-19 00:41N 49°08' W 123°03'4 8.5
2018-Jul-19 00:11N 49°09' W 122°57'2 8.8
2018-Jul-19 00:01N 49°10' W 122°55'1 1.0
2018-Jul-18 22:55N 49°12' W 122°55'1 2.2
2018-Jul-18 22:19N 49°10' W 122°55'0 0.1
2018-Jul-18 21:47N 49°10' W 122°55'2 2.9
2018-Jul-18 21:16N 49°09' W 122°58'2 3.9
2018-Jul-18 20:42N 49°09' W 123°01'1 5.6
2018-Jul-18 20:27N 49°09' W 123°03'4 5.8
2018-Jul-18 19:43N 49°06' W 123°09'4 5.3
2018-Jul-18 19:04N 49°08' W 123°14'2 5.0
2018-Jul-18 18:44N 49°07' W 123°16'1 4.1
2018-Jul-18 18:30N 49°07' W 123°17'1 2.7
2018-Jul-18 17:59N 49°07' W 123°19'4 7.5
2018-Jul-18 17:24N 49°11' W 123°18'32 4.6
2018-Jul-18 10:27N 49°28' W 124°01'3 7.4
2018-Jul-18 10:00N 49°30' W 124°05'4 7.2
2018-Jul-18 09:30N 49°33' W 124°09'5 7.9
2018-Jul-18 08:55N 49°36' W 124°13'3 8.3
2018-Jul-18 08:30N 49°39' W 124°17'4 8.4
2018-Jul-18 08:00N 49°42' W 124°20'4 7.8
2018-Jul-18 07:30N 49°45' W 124°25'4 7.8
2018-Jul-18 07:00N 49°47' W 124°30'4 7.0
2018-Jul-18 06:30N 49°50' W 124°33'3 5.2
2018-Jul-18 06:00N 49°52' W 124°34'0 0.3
2018-Jul-18 05:30N 49°52' W 124°34'2 4.2
2018-Jul-18 05:00N 49°50' W 124°33'3 6.6
2018-Jul-18 04:30N 49°47' W 124°30'3 6.5
2018-Jul-18 04:00N 49°46' W 124°26'3 6.6
2018-Jul-18 03:29N 49°44' W 124°22'3 6.6
2018-Jul-18 03:00N 49°42' W 124°18'3 6.3
2018-Jul-18 02:30N 49°39' W 124°15'46 6.2
2018-Jul-17 19:01N 49°08' W 123°23'0 5.0
2018-Jul-17 19:00N 49°08' W 123°22'12 6.2
2018-Jul-17 16:58N 49°08' W 123°03'4 6.8
2018-Jul-17 16:24N 49°09' W 122°58'0 0.4
2018-Jul-17 15:59N 49°09' W 122°57'0 0.6
2018-Jul-17 15:28N 49°10' W 122°57'1 2.1
2018-Jul-17 14:57N 49°10' W 122°56'2 3.6
2018-Jul-17 14:30N 49°12' W 122°54'1 2.0
2018-Jul-17 14:00N 49°11' W 122°55'2 3.4
2018-Jul-17 13:30N 49°10' W 122°57'2 3.5
2018-Jul-17 13:00N 49°09' W 122°59'2 3.0
2018-Jul-17 12:30N 49°09' W 123°02'2 3.5
2018-Jul-17 12:01N 49°08' W 123°04'2 3.5
2018-Jul-17 11:31N 49°07' W 123°06'2 3.3
2018-Jul-17 10:53N 49°07' W 123°09'1 2.5
2018-Jul-17 10:25N 49°07' W 123°11'1 2.6
2018-Jul-17 10:00N 49°07' W 123°12'1 2.7
2018-Jul-17 09:30N 49°08' W 123°14'1 2.8
2018-Jul-17 08:59N 49°07' W 123°16'2 3.9
2018-Jul-17 08:25N 49°06' W 123°19'3 6.6
2018-Jul-17 08:00N 49°09' W 123°19'3 6.2
2018-Jul-17 07:30N 49°12' W 123°18'3 5.1
2018-Jul-17 06:50N 49°16' W 123°19'29 5.2
2018-Jul-17 01:15N 49°27' W 123°59'2 5.4
2018-Jul-17 00:50N 49°29' W 124°02'2 5.5
2018-Jul-17 00:25N 49°30' W 124°05'6 5.8
2018-Jul-16 23:24N 49°35' W 124°11'4 6.1
2018-Jul-16 22:42N 49°38' W 124°15'1 6.1
2018-Jul-16 22:28N 49°39' W 124°16'3 5.9
2018-Jul-16 22:00N 49°41' W 124°19'3 6.0
2018-Jul-16 21:30N 49°43' W 124°22'3 5.8
2018-Jul-16 21:00N 49°45' W 124°26'3 5.8
2018-Jul-16 20:30N 49°47' W 124°30'3 6.0
2018-Jul-16 20:00N 49°49' W 124°33'3 5.9
2018-Jul-16 19:30N 49°52' W 124°34'1 1.2
2018-Jul-16 19:00N 49°52' W 124°34'0 0.3
2018-Jul-16 18:30N 49°52' W 124°34'0 0.1
2018-Jul-16 18:00N 49°52' W 124°34'0 0.2
2018-Jul-16 17:30N 49°52' W 124°34'1 1.0
2018-Jul-16 17:00N 49°52' W 124°34'2 3.4
2018-Jul-16 16:30N 49°51' W 124°33'3 5.9
2018-Jul-16 16:00N 49°48' W 124°32'3 5.5
2018-Jul-16 15:30N 49°46' W 124°28'3 5.1
2018-Jul-16 15:00N 49°45' W 124°24'3 5.3
2018-Jul-16 14:30N 49°44' W 124°21'3 5.4
2018-Jul-16 13:58N 49°42' W 124°18'3 5.2
2018-Jul-16 13:29N 49°39' W 124°16'3 5.3
2018-Jul-16 12:57N 49°37' W 124°13'3 5.3
2018-Jul-16 12:20N 49°35' W 124°09'2 5.2
2018-Jul-16 11:56N 49°33' W 124°08'2 5.0
2018-Jul-16 11:30N 49°31' W 124°06'3 5.3
2018-Jul-16 10:56N 49°29' W 124°03'31 4.8
2018-Jul-16 04:32N 49°10' W 123°26'0 2.3
2018-Jul-16 04:30N 49°10' W 123°26'2 4.4
2018-Jul-16 03:59N 49°08' W 123°23'3 3.5
2018-Jul-16 03:01N 49°07' W 123°19'0 2.2
2018-Jul-16 02:59N 49°07' W 123°19'0 0.3
2018-Jul-16 02:30N 49°07' W 123°19'1 1.3
2018-Jul-16 02:00N 49°07' W 123°19'1 1.4
2018-Jul-16 01:30N 49°07' W 123°19'14 5.4
2018-Jul-15 22:53N 49°09' W 122°58'0 0.4
2018-Jul-15 22:30N 49°09' W 122°57'0 0.7
2018-Jul-15 21:53N 49°10' W 122°57'0 0.0
2018-Jul-15 21:30N 49°10' W 122°57'0 0.0
2018-Jul-15 21:00N 49°10' W 122°57'0 0.0
2018-Jul-15 20:30N 49°10' W 122°57'0 0.0
2018-Jul-15 19:57N 49°10' W 122°57'0 0.0
2018-Jul-15 19:29N 49°10' W 122°57'0 0.0
2018-Jul-15 19:00N 49°10' W 122°57'0 0.0
2018-Jul-15 18:30N 49°10' W 122°57'0 0.1
2018-Jul-15 17:57N 49°10' W 122°57'0 0.1
2018-Jul-15 17:30N 49°10' W 122°57'0 0.0
2018-Jul-15 16:57N 49°10' W 122°57'0 0.0
2018-Jul-15 16:27N 49°10' W 122°57'0 0.0
2018-Jul-15 16:00N 49°10' W 122°57'0 0.0
2018-Jul-15 15:29N 49°10' W 122°57'0 0.0
2018-Jul-15 14:59N 49°10' W 122°57'0 0.0
2018-Jul-15 14:23N 49°10' W 122°57'0 0.0
2018-Jul-15 14:00N 49°10' W 122°57'0 0.0
2018-Jul-15 13:30N 49°10' W 122°57'0 0.0
2018-Jul-15 13:00N 49°10' W 122°57'0 0.0
2018-Jul-15 12:30N 49°10' W 122°57'0 0.0
2018-Jul-15 11:59N 49°10' W 122°57'0 0.0
2018-Jul-15 11:30N 49°10' W 122°57'0 0.0
2018-Jul-15 11:00N 49°10' W 122°57'0 0.0
2018-Jul-15 10:28N 49°10' W 122°57'0 0.0
2018-Jul-15 09:59N 49°10' W 122°57'0 0.0
2018-Jul-15 09:30N 49°10' W 122°57'0 0.0
2018-Jul-15 08:54N 49°10' W 122°57'0 0.0
2018-Jul-15 08:28N 49°10' W 122°57'0 0.0
2018-Jul-15 07:57N 49°10' W 122°57'0 0.0
2018-Jul-15 07:30N 49°10' W 122°57'0 0.0
2018-Jul-15 06:46N 49°10' W 122°57'0 0.0
2018-Jul-15 06:30N 49°10' W 122°57'0 0.0
2018-Jul-15 05:47N 49°10' W 122°57'0 0.7
2018-Jul-15 05:27N 49°10' W 122°57'1 2.0
2018-Jul-15 05:00N 49°09' W 122°58'1 2.5
2018-Jul-15 04:30N 49°09' W 122°60'3 5.2
2018-Jul-15 04:00N 49°08' W 123°03'4 8.0
2018-Jul-15 03:31N 49°06' W 123°09'4 7.8
2018-Jul-15 02:59N 49°08' W 123°15'4 7.7
2018-Jul-15 02:28N 49°06' W 123°20'4 8.1
2018-Jul-15 02:00N 49°04' W 123°25'4 8.1
2018-Jul-15 01:29N 49°02' W 123°31'4 7.3
2018-Jul-15 00:58N 49°00' W 123°36'2 4.3
2018-Jul-15 00:26N 49°01' W 123°39'2 3.9
2018-Jul-14 23:59N 49°02' W 123°41'2 3.3
2018-Jul-14 23:20N 49°01' W 123°38'2 3.7
2018-Jul-14 22:52N 48°60' W 123°37'2 4.6
2018-Jul-14 22:24N 48°58' W 123°37'2 4.1
2018-Jul-14 22:00N 48°56' W 123°37'2 4.7
2018-Jul-14 21:30N 48°54' W 123°37'2 2.8
2018-Jul-14 20:59N 48°52' W 123°38'0 0.7
2018-Jul-14 20:31N 48°52' W 123°38'0 0.7
2018-Jul-14 20:00N 48°52' W 123°38'2 4.7
2018-Jul-14 19:30N 48°55' W 123°37'3 6.0
2018-Jul-14 18:56N 48°58' W 123°37'3 6.8
2018-Jul-14 18:29N 49°01' W 123°35'2 4.0
2018-Jul-14 17:58N 49°03' W 123°34'1 1.0
2018-Jul-14 17:18N 49°03' W 123°35'1 1.5
2018-Jul-14 16:49N 49°03' W 123°34'0 1.4
2018-Jul-14 16:30N 49°02' W 123°34'1 1.3
2018-Jul-14 15:52N 49°02' W 123°32'1 2.0
2018-Jul-14 15:21N 49°03' W 123°31'1 3.2
2018-Jul-14 14:57N 49°03' W 123°29'2 2.4
2018-Jul-14 14:19N 49°03' W 123°27'9 4.4
2018-Jul-14 12:14N 49°08' W 123°14'1 5.8
2018-Jul-14 11:59N 49°08' W 123°12'3 6.7
2018-Jul-14 11:30N 49°07' W 123°08'3 6.4
2018-Jul-14 11:00N 49°08' W 123°03'3 6.6
2018-Jul-14 10:29N 49°09' W 122°58'1 1.6
2018-Jul-14 10:00N 49°09' W 122°57'0 0.3
2018-Jul-14 09:30N 49°09' W 122°57'0 0.1
2018-Jul-14 09:00N 49°09' W 122°58'1 1.2
2018-Jul-14 08:31N 49°09' W 122°58'2 4.0
2018-Jul-14 08:00N 49°09' W 123°02'2 4.5
2018-Jul-14 07:29N 49°08' W 123°04'2 4.4
2018-Jul-14 07:00N 49°07' W 123°07'2 3.8
2018-Jul-14 06:29N 49°07' W 123°10'1 2.7
2018-Jul-14 05:58N 49°07' W 123°12'2 4.1
2018-Jul-14 05:28N 49°07' W 123°15'3 5.3
2018-Jul-14 04:55N 49°06' W 123°19'3 6.5
2018-Jul-14 04:30N 49°08' W 123°21'3 6.4
2018-Jul-14 04:00N 49°12' W 123°21'3 6.0
2018-Jul-14 03:30N 49°15' W 123°21'3 6.2
2018-Jul-14 03:00N 49°18' W 123°20'3 6.3
2018-Jul-14 02:28N 49°21' W 123°20'0 0.3
2018-Jul-14 01:59N 49°21' W 123°20'25 5.6
2018-Jul-13 21:31N 49°26' W 123°58'3 6.4
2018-Jul-13 21:05N 49°28' W 124°02'1 6.8
2018-Jul-13 20:58N 49°28' W 124°03'3 6.7
2018-Jul-13 20:30N 49°30' W 124°06'4 7.1
2018-Jul-13 20:00N 49°34' W 124°08'5 7.6
2018-Jul-13 19:21N 49°37' W 124°13'3 7.5
2018-Jul-13 18:59N 49°39' W 124°16'3 6.9
2018-Jul-13 18:31N 49°42' W 124°19'4 7.2
2018-Jul-13 18:00N 49°44' W 124°24'3 7.0
2018-Jul-13 17:30N 49°46' W 124°28'3 6.9
2018-Jul-13 17:00N 49°48' W 124°33'3 6.6
2018-Jul-13 16:30N 49°51' W 124°34'1 1.9
2018-Jul-13 16:01N 49°52' W 124°34'0 0.1
2018-Jul-13 15:30N 49°52' W 124°34'0 0.2
2018-Jul-13 15:00N 49°52' W 124°34'2 3.1
2018-Jul-13 14:30N 49°51' W 124°33'5 5.1
2018-Jul-13 13:30N 49°46' W 124°29'3 5.7
2018-Jul-13 13:00N 49°45' W 124°25'3 5.2
2018-Jul-13 12:29N 49°44' W 124°21'3 5.0
2018-Jul-13 11:59N 49°42' W 124°19'3 6.1
2018-Jul-13 11:30N 49°39' W 124°16'3 5.6
2018-Jul-13 10:53N 49°37' W 124°12'2 5.3
2018-Jul-13 10:28N 49°35' W 124°10'3 5.5
2018-Jul-13 09:59N 49°33' W 124°07'3 5.4
2018-Jul-13 09:30N 49°31' W 124°05'3 5.8
2018-Jul-13 09:00N 49°29' W 124°02'29 5.4
2018-Jul-13 03:40N 49°11' W 123°28'2 4.9
2018-Jul-13 03:15N 49°09' W 123°25'2 5.2
2018-Jul-13 02:50N 49°08' W 123°23'12 5.2
2018-Jul-13 00:28N 49°08' W 123°04'5 2.3
2018-Jul-12 22:25N 49°09' W 122°57'2 4.4
2018-Jul-12 21:54N 49°09' W 123°01'2 6.1
2018-Jul-12 21:30N 49°08' W 123°04'4 6.0
2018-Jul-12 20:52N 49°07' W 123°09'2 6.1
2018-Jul-12 20:29N 49°08' W 123°13'3 5.8
2018-Jul-12 19:56N 49°07' W 123°17'  

Dump ship's entire track history